createdAt,value
2023-03-08T00:01:37.235Z,9.35
2023-03-08T00:03:40.667Z,14.85
2023-03-08T00:05:44.289Z,10.85
2023-03-08T00:07:47.557Z,5.75
2023-03-08T00:09:50.852Z,5.28
2023-03-08T00:11:54.143Z,8.07
2023-03-08T00:13:57.567Z,7.47
2023-03-08T00:16:03.076Z,5.18
2023-03-08T00:18:06.450Z,9.70
2023-03-08T00:20:11.363Z,7.82
2023-03-08T00:22:14.628Z,7.47
2023-03-08T00:24:19.776Z,5.28
2023-03-08T00:26:23.347Z,4.40
2023-03-08T00:28:26.836Z,5.13
2023-03-08T00:30:30.086Z,6.22
2023-03-08T00:32:34.870Z,4.22
2023-03-08T00:34:38.170Z,3.30
2023-03-08T00:36:41.425Z,6.10
2023-03-08T00:38:45.141Z,6.45
2023-03-08T00:40:50.612Z,4.60
2023-03-08T00:42:53.829Z,6.90
2023-03-08T00:44:57.082Z,7.72
2023-03-08T00:47:00.715Z,6.60
2023-03-08T00:49:05.477Z,4.20
2023-03-08T00:51:08.793Z,5.25
2023-03-08T00:53:12.543Z,5.30
2023-03-08T00:55:17.699Z,4.03
2023-03-08T00:57:20.973Z,4.45
2023-03-08T00:59:24.406Z,3.45
2023-03-08T01:01:27.673Z,5.85
2023-03-08T01:03:31.054Z,7.18
2023-03-08T01:05:39.739Z,8.35
2023-03-08T01:07:42.995Z,5.63
2023-03-08T01:09:46.257Z,7.75
2023-03-08T01:11:50.296Z,3.15
2023-03-08T01:13:54.867Z,3.17
2023-03-08T01:15:58.216Z,8.73
2023-03-08T01:18:01.445Z,4.45
2023-03-08T01:20:07.285Z,5.95
2023-03-08T01:22:12.417Z,5.40
2023-03-08T01:24:15.648Z,9.60
2023-03-08T01:26:20.968Z,4.30
2023-03-08T01:28:24.242Z,8.73
2023-03-08T01:30:27.578Z,3.22
2023-03-08T01:32:30.901Z,6.07
2023-03-08T01:34:34.914Z,9.30
2023-03-08T01:36:38.176Z,4.28
2023-03-08T01:38:43.120Z,6.97
2023-03-08T01:40:46.336Z,7.22
2023-03-08T01:42:49.935Z,6.13
2023-03-08T01:44:55.975Z,7.47
2023-03-08T01:46:59.651Z,3.95
2023-03-08T01:49:17.712Z,6.97
2023-03-08T01:51:27.453Z,6.35
2023-03-08T01:53:31.449Z,5.18
2023-03-08T01:55:36.369Z,5.82
2023-03-08T01:57:43.593Z,5.20
2023-03-08T01:59:49.727Z,6.70
2023-03-08T02:01:53.618Z,8.13
2023-03-08T02:03:57.855Z,7.18
2023-03-08T02:06:01.938Z,9.93
2023-03-08T02:08:05.745Z,5.65
2023-03-08T02:10:14.351Z,11.13
2023-03-08T02:12:19.362Z,5.75
2023-03-08T02:14:22.689Z,8.65
2023-03-08T02:16:27.512Z,6.60
2023-03-08T02:18:30.806Z,5.93
2023-03-08T02:20:35.881Z,7.63
2023-03-08T02:22:47.788Z,10.52
2023-03-08T02:24:51.172Z,6.63
2023-03-08T02:27:01.244Z,9.75
2023-03-08T02:29:04.523Z,5.68
2023-03-08T02:31:07.815Z,9.38
2023-03-08T02:33:11.144Z,6.57
2023-03-08T02:35:14.448Z,5.57
2023-03-08T02:37:17.721Z,6.65
2023-03-08T02:39:25.422Z,6.88
2023-03-08T02:41:31.488Z,9.18
2023-03-08T02:43:35.069Z,9.68
2023-03-08T02:45:38.430Z,7.38
2023-03-08T02:47:42.364Z,7.75
2023-03-08T02:49:45.895Z,10.75
2023-03-08T02:51:49.149Z,9.70
2023-03-08T02:53:52.477Z,11.13
2023-03-08T02:55:57.213Z,10.70
2023-03-08T02:58:00.448Z,14.05
2023-03-08T03:00:04.145Z,10.90
2023-03-08T03:02:07.489Z,10.88
2023-03-08T03:04:11.752Z,11.57
2023-03-08T03:06:16.815Z,10.15
2023-03-08T03:08:22.612Z,10.88
2023-03-08T03:10:26.030Z,11.43
2023-03-08T03:12:31.077Z,11.45
2023-03-08T03:14:34.442Z,9.98
2023-03-08T03:16:38.673Z,12.65
2023-03-08T03:18:42.385Z,7.78
2023-03-08T03:20:45.691Z,9.77
2023-03-08T03:22:49.031Z,9.57
2023-03-08T03:24:53.766Z,11.23
2023-03-08T03:26:57.227Z,10.13
2023-03-08T03:29:04.648Z,9.93
2023-03-08T03:31:14.249Z,9.50
2023-03-08T03:33:17.629Z,6.40
2023-03-08T03:35:21.745Z,8.70
2023-03-08T03:37:25.310Z,8.60
2023-03-08T03:39:33.891Z,8.98
2023-03-08T03:41:37.835Z,9.02
2023-03-08T03:43:46.667Z,8.35
2023-03-08T03:45:58.310Z,7.15
2023-03-08T03:48:02.299Z,8.18
2023-03-08T03:50:06.929Z,8.35
2023-03-08T03:52:20.846Z,7.85
2023-03-08T03:54:34.582Z,7.72
2023-03-08T03:56:38.678Z,8.20
2023-03-08T03:58:43.424Z,8.18
2023-03-08T04:00:47.685Z,10.50
2023-03-08T04:03:01.553Z,10.95
2023-03-08T04:05:07.183Z,9.32
2023-03-08T04:07:13.954Z,9.30
2023-03-08T04:09:24.778Z,12.75
2023-03-08T04:11:41.025Z,9.45
2023-03-08T04:13:50.248Z,12.52
2023-03-08T04:15:57.619Z,11.88
2023-03-08T04:18:02.353Z,10.88
2023-03-08T04:20:09.869Z,10.60
2023-03-08T04:22:17.850Z,7.78
2023-03-08T04:24:28.870Z,10.57
2023-03-08T04:26:37.934Z,7.93
2023-03-08T04:28:41.344Z,9.35
2023-03-08T04:30:46.514Z,11.95
2023-03-08T04:32:51.301Z,10.88
2023-03-08T04:34:57.172Z,13.52
2023-03-08T04:37:03.532Z,12.43
2023-03-08T04:39:06.823Z,10.57
2023-03-08T04:41:12.187Z,10.43
2023-03-08T04:43:44.924Z,10.65
2023-03-08T04:45:49.033Z,15.43
2023-03-08T04:47:52.411Z,11.23
2023-03-08T04:49:57.972Z,12.60
2023-03-08T04:52:01.508Z,8.43
2023-03-08T04:54:05.652Z,10.27
2023-03-08T04:56:13.356Z,7.55
2023-03-08T04:58:17.557Z,14.00
2023-03-08T05:00:21.336Z,10.73
2023-03-08T05:02:25.174Z,9.18
2023-03-08T05:04:28.487Z,13.02
2023-03-08T05:06:33.252Z,11.07
2023-03-08T05:08:37.284Z,12.82
2023-03-08T05:10:42.330Z,14.32
2023-03-08T05:12:46.369Z,13.48
2023-03-08T05:14:50.603Z,10.77
2023-03-08T05:16:56.606Z,11.02
2023-03-08T05:18:59.981Z,11.48
2023-03-08T05:21:12.416Z,7.65
2023-03-08T05:23:17.664Z,5.45
2023-03-08T05:25:21.462Z,6.57
2023-03-08T05:27:25.473Z,3.97
2023-03-08T05:29:29.369Z,5.85
2023-03-08T05:31:33.511Z,6.25
2023-03-08T05:33:41.336Z,4.65
2023-03-08T05:35:45.132Z,4.18
2023-03-08T05:37:48.708Z,5.88
2023-03-08T05:39:54.012Z,6.35
2023-03-08T05:41:59.311Z,7.53
2023-03-08T05:44:07.934Z,5.13
2023-03-08T05:46:14.796Z,5.57
2023-03-08T05:48:19.210Z,6.32
2023-03-08T05:50:23.074Z,7.90
2023-03-08T05:52:28.617Z,7.03
2023-03-08T05:54:32.144Z,7.13
2023-03-08T05:56:41.074Z,7.40
2023-03-08T05:58:56.396Z,8.48
2023-03-08T06:01:10.554Z,6.97
2023-03-08T06:03:14.084Z,7.43
2023-03-08T06:05:22.185Z,8.32
2023-03-08T06:07:29.717Z,6.85
2023-03-08T06:09:40.473Z,6.55
2023-03-08T06:11:49.373Z,9.10
2023-03-08T06:13:52.731Z,7.97
2023-03-08T06:15:57.674Z,7.28
2023-03-08T06:18:01.394Z,11.45
2023-03-08T06:20:05.201Z,10.35
2023-03-08T06:22:10.571Z,9.07
2023-03-08T06:24:13.834Z,9.40
2023-03-08T06:26:17.870Z,13.40
2023-03-08T06:28:24.013Z,10.63
2023-03-08T06:30:28.593Z,12.00
2023-03-08T06:32:32.195Z,11.50
2023-03-08T06:34:37.034Z,9.90
2023-03-08T06:36:40.851Z,13.95
2023-03-08T06:38:44.551Z,12.73
2023-03-08T06:40:47.920Z,13.35
2023-03-08T06:42:51.284Z,13.63
2023-03-08T06:44:56.480Z,16.45
2023-03-08T06:47:00.004Z,15.32
2023-03-08T06:49:04.401Z,14.95
2023-03-08T06:51:10.047Z,13.52
2023-03-08T06:53:15.694Z,16.65
2023-03-08T06:55:45.084Z,14.80
2023-03-08T06:57:48.489Z,15.93
2023-03-08T06:59:51.814Z,15.32
2023-03-08T07:01:56.546Z,15.70
2023-03-08T07:03:59.996Z,9.00
2023-03-08T07:06:05.621Z,13.38
2023-03-08T07:08:10.152Z,12.32
2023-03-08T07:10:15.584Z,11.02
2023-03-08T07:12:18.993Z,11.93
2023-03-08T07:14:22.382Z,10.90
2023-03-08T07:16:25.743Z,12.18
2023-03-08T07:18:30.401Z,11.25
2023-03-08T07:20:33.783Z,12.07
2023-03-08T07:22:37.285Z,12.80
2023-03-08T07:24:40.890Z,14.50
2023-03-08T07:26:44.227Z,19.63
2023-03-08T07:28:51.394Z,19.40
2023-03-08T07:30:55.064Z,23.92
2023-03-08T07:32:58.423Z,21.38
2023-03-08T07:35:03.200Z,26.40
2023-03-08T07:37:07.560Z,27.95
2023-03-08T07:39:10.833Z,23.10
2023-03-08T07:41:14.514Z,19.25
2023-03-08T07:43:17.900Z,15.70
2023-03-08T07:47:32.476Z,16.27
2023-03-08T07:49:35.892Z,14.02
2023-03-08T07:51:40.861Z,15.52
2023-03-08T07:53:47.065Z,14.15
2023-03-08T07:55:51.331Z,18.20
2023-03-08T07:57:55.077Z,15.57
2023-03-08T07:59:59.087Z,14.60
2023-03-08T08:02:02.629Z,14.73
2023-03-08T08:04:09.882Z,16.70
2023-03-08T08:06:13.328Z,15.10
2023-03-08T08:08:18.285Z,19.52
2023-03-08T08:10:21.621Z,16.40
2023-03-08T08:12:26.528Z,15.70
2023-03-08T08:14:29.956Z,21.88
2023-03-08T08:16:33.410Z,18.65
2023-03-08T08:18:37.464Z,25.25
2023-03-08T08:20:40.752Z,19.98
2023-03-08T08:22:44.065Z,20.15
2023-03-08T08:24:48.776Z,26.63
2023-03-08T08:26:52.126Z,21.88
2023-03-08T08:28:56.548Z,23.52
2023-03-08T08:31:01.022Z,26.63
2023-03-08T08:33:04.352Z,25.77
2023-03-08T08:35:08.422Z,21.92
2023-03-08T08:37:11.750Z,26.35
2023-03-08T08:39:15.220Z,23.92
2023-03-08T08:41:21.680Z,24.27
2023-03-08T08:43:25.028Z,27.05
2023-03-08T08:45:28.287Z,24.35
2023-03-08T08:47:31.745Z,26.30
2023-03-08T08:49:35.131Z,25.73
2023-03-08T08:51:38.516Z,25.98
2023-03-08T08:53:41.757Z,27.45
2023-03-08T08:55:45.669Z,27.40
2023-03-08T08:57:50.393Z,28.65
2023-03-08T08:59:53.606Z,27.92
2023-03-08T09:01:56.789Z,32.83
2023-03-08T09:04:00.191Z,26.52
2023-03-08T09:06:03.469Z,33.20
2023-03-08T09:08:07.473Z,28.90
2023-03-08T09:10:11.648Z,28.05
2023-03-08T09:12:14.876Z,25.10
2023-03-08T09:14:19.417Z,24.20
2023-03-08T09:16:24.588Z,24.33
2023-03-08T09:18:28.261Z,30.60
2023-03-08T09:20:31.549Z,26.15
2023-03-08T09:22:34.745Z,24.75
2023-03-08T09:24:38.161Z,27.40
2023-03-08T09:26:41.464Z,24.05
2023-03-08T09:28:45.081Z,28.00
2023-03-08T09:30:49.788Z,26.05
2023-03-08T09:32:53.083Z,27.83
2023-03-08T09:34:56.587Z,28.17
2023-03-08T09:36:59.796Z,24.75
2023-03-08T09:39:03.650Z,26.75
2023-03-08T09:41:21.971Z,29.42
2023-03-08T09:43:37.131Z,27.80
2023-03-08T09:45:40.461Z,28.52
2023-03-08T09:47:49.263Z,28.27
2023-03-08T09:49:55.638Z,28.95
2023-03-08T09:52:04.325Z,25.67
2023-03-08T09:54:13.664Z,29.95
2023-03-08T09:56:24.506Z,29.33
2023-03-08T09:58:34.156Z,27.48
2023-03-08T10:00:39.288Z,34.00
2023-03-08T10:02:54.794Z,31.80
2023-03-08T10:05:13.426Z,30.70
2023-03-08T10:07:27.031Z,25.30
2023-03-08T10:09:34.581Z,29.50
2023-03-08T10:11:43.469Z,24.95
2023-03-08T10:13:50.554Z,30.02
2023-03-08T10:15:59.536Z,32.28
2023-03-08T10:18:11.963Z,24.17
2023-03-08T10:20:21.120Z,28.85
2023-03-08T10:22:28.415Z,27.42
2023-03-08T10:24:38.266Z,25.92
2023-03-08T10:26:42.385Z,24.15
2023-03-08T10:28:46.005Z,20.25
2023-03-08T10:30:51.263Z,22.25
2023-03-08T10:32:59.898Z,20.25
2023-03-08T10:35:06.483Z,17.75
2023-03-08T10:37:09.944Z,18.92
2023-03-08T10:39:13.181Z,22.35
2023-03-08T10:41:18.156Z,21.60
2023-03-08T10:43:27.975Z,17.35
2023-03-08T10:45:31.422Z,20.50
2023-03-08T10:47:36.724Z,16.77
2023-03-08T10:49:39.993Z,18.65
2023-03-08T10:51:53.369Z,19.20
2023-03-08T10:53:58.338Z,18.42
2023-03-08T10:56:02.877Z,19.77
2023-03-08T10:58:06.450Z,18.65
2023-03-08T11:00:31.243Z,13.07
2023-03-08T11:02:34.668Z,15.98
2023-03-08T11:04:38.005Z,14.60
2023-03-08T11:06:41.237Z,16.30
2023-03-08T11:08:55.465Z,28.67
2023-03-08T11:11:09.695Z,13.77
2023-03-08T11:13:24.902Z,13.18
2023-03-08T11:15:30.538Z,12.60
2023-03-08T11:17:39.471Z,12.63
2023-03-08T11:19:59.951Z,12.60
2023-03-08T11:22:14.176Z,13.98
2023-03-08T11:24:31.764Z,12.20
2023-03-08T11:26:41.948Z,13.43
2023-03-08T11:28:57.919Z,15.73
2023-03-08T11:31:15.193Z,16.02
2023-03-08T11:33:31.762Z,13.75
2023-03-08T11:35:44.671Z,10.98
2023-03-08T11:37:54.890Z,11.98
2023-03-08T11:40:09.120Z,14.88
2023-03-08T11:42:21.245Z,17.83
2023-03-08T11:44:56.188Z,13.57
2023-03-08T11:47:33.255Z,10.93
2023-03-08T11:49:55.070Z,12.90
2023-03-08T11:52:04.735Z,14.50
2023-03-08T11:54:19.500Z,9.70
2023-03-08T11:56:39.056Z,9.73
2023-03-08T11:58:49.384Z,8.65
2023-03-08T12:00:57.720Z,9.85
2023-03-08T12:03:06.073Z,9.98
2023-03-08T12:05:15.211Z,8.48
2023-03-08T12:07:23.443Z,9.02
2023-03-08T12:09:30.755Z,7.93
2023-03-08T12:11:41.548Z,9.32
2023-03-08T12:13:48.090Z,9.00
2023-03-08T12:15:56.467Z,6.90
2023-03-08T12:18:07.644Z,10.95
2023-03-08T12:20:14.637Z,9.77
2023-03-08T12:22:36.479Z,7.57
2023-03-08T12:24:49.722Z,13.32
2023-03-08T12:27:00.105Z,7.90
2023-03-08T12:29:07.012Z,7.45
2023-03-08T12:31:27.830Z,6.97
2023-03-08T12:33:33.495Z,7.13
2023-03-08T12:35:39.309Z,5.53
2023-03-08T12:37:42.627Z,9.13
2023-03-08T12:39:57.610Z,5.88
2023-03-08T12:42:15.245Z,6.75
2023-03-08T12:44:26.706Z,5.85
2023-03-08T12:46:30.000Z,9.38
2023-03-08T12:48:35.797Z,9.82
2023-03-08T12:50:42.973Z,6.43
2023-03-08T12:52:46.627Z,7.72
2023-03-08T12:54:59.297Z,6.70
2023-03-08T12:57:15.650Z,9.38
2023-03-08T12:59:33.948Z,4.93
2023-03-08T13:01:39.954Z,6.13
2023-03-08T13:03:43.617Z,6.53
2023-03-08T13:05:49.749Z,7.63
2023-03-08T13:08:04.048Z,4.70
2023-03-08T13:10:19.907Z,7.35
2023-03-08T13:12:35.400Z,5.45
2023-03-08T13:14:43.845Z,7.75
2023-03-08T13:16:47.091Z,6.25
2023-03-08T13:18:54.987Z,7.63
2023-03-08T13:21:27.983Z,7.78
2023-03-08T13:23:37.668Z,5.60
2023-03-08T13:25:51.802Z,8.18
2023-03-08T13:28:03.586Z,10.25
2023-03-08T13:30:23.912Z,10.85
2023-03-08T13:32:27.394Z,11.70
2023-03-08T13:34:32.590Z,10.35
2023-03-08T13:36:35.829Z,8.13
2023-03-08T13:38:39.197Z,8.60
2023-03-08T13:40:52.308Z,8.90
2023-03-08T13:42:58.640Z,9.35
2023-03-08T13:45:10.825Z,5.93
2023-03-08T13:47:24.733Z,6.93
2023-03-08T13:49:30.140Z,7.20
2023-03-08T13:51:33.338Z,6.68
2023-03-08T13:53:40.425Z,7.10
2023-03-08T13:55:46.093Z,9.13
2023-03-08T13:57:52.506Z,7.82
2023-03-08T13:59:59.544Z,7.63
2023-03-08T14:02:03.007Z,8.60
2023-03-08T14:04:12.897Z,10.63
2023-03-08T14:06:19.048Z,11.30
2023-03-08T14:08:24.989Z,12.38
2023-03-08T14:10:35.831Z,11.52
2023-03-08T14:12:39.105Z,9.88
2023-03-08T14:14:45.763Z,11.57
2023-03-08T14:16:54.720Z,11.60
2023-03-08T14:18:58.775Z,11.40
2023-03-08T14:21:04.469Z,12.07
2023-03-08T14:23:24.847Z,12.25
2023-03-08T14:25:30.170Z,11.38
2023-03-08T14:27:38.960Z,15.55
2023-03-08T14:29:44.028Z,11.60
2023-03-08T14:32:00.415Z,9.95
2023-03-08T14:34:05.421Z,13.25
2023-03-08T14:36:11.238Z,10.57
2023-03-08T14:38:15.687Z,11.60
2023-03-08T14:40:29.347Z,11.38
2023-03-08T14:42:37.240Z,11.82
2023-03-08T14:44:40.919Z,13.98
2023-03-08T14:46:46.041Z,10.65
2023-03-08T14:48:59.955Z,11.40
2023-03-08T14:51:05.248Z,13.35
2023-03-08T14:53:30.704Z,12.95
2023-03-08T14:55:36.342Z,10.95
2023-03-08T14:57:39.600Z,14.27
2023-03-08T14:59:43.364Z,19.48
2023-03-08T15:01:47.126Z,12.30
2023-03-08T15:03:50.335Z,17.30
2023-03-08T15:05:55.765Z,12.23
2023-03-08T15:08:00.795Z,11.70
2023-03-08T15:10:06.934Z,12.95
2023-03-08T15:12:12.169Z,12.90
2023-03-08T15:14:15.551Z,11.25
2023-03-08T15:16:18.978Z,11.07
2023-03-08T15:18:22.228Z,12.27
2023-03-08T15:20:25.572Z,11.77
2023-03-08T15:22:30.126Z,11.02
2023-03-08T15:24:33.463Z,10.60
2023-03-08T15:26:36.699Z,10.35
2023-03-08T15:28:39.923Z,9.90
2023-03-08T15:30:43.201Z,8.38
2023-03-08T15:32:46.453Z,9.63
2023-03-08T15:34:49.800Z,10.05
2023-03-08T15:36:54.122Z,11.38
2023-03-08T15:38:59.705Z,12.02
2023-03-08T15:41:04.888Z,11.80
2023-03-08T15:43:08.446Z,9.32
2023-03-08T15:45:13.293Z,15.77
2023-03-08T15:47:16.752Z,12.90
2023-03-08T15:49:20.099Z,12.25
2023-03-08T15:51:27.272Z,9.32
2023-03-08T15:53:35.673Z,9.25
2023-03-08T15:55:41.558Z,9.68
2023-03-08T15:57:44.821Z,10.15
2023-03-08T15:59:48.488Z,10.98
2023-03-08T16:01:52.476Z,9.65
2023-03-08T16:03:56.975Z,9.68
2023-03-08T16:06:01.179Z,7.57
2023-03-08T16:08:05.057Z,9.25
2023-03-08T16:10:11.086Z,6.90
2023-03-08T16:12:16.828Z,9.57
2023-03-08T16:14:20.060Z,8.32
2023-03-08T16:16:29.737Z,7.57
2023-03-08T16:18:44.084Z,10.98
2023-03-08T16:20:47.311Z,7.22
2023-03-08T16:22:51.137Z,7.97
2023-03-08T16:24:54.623Z,9.73
2023-03-08T16:26:59.404Z,8.98
2023-03-08T16:29:04.559Z,8.02
2023-03-08T16:31:09.349Z,10.80
2023-03-08T16:33:12.716Z,9.85
2023-03-08T16:35:16.148Z,8.43
2023-03-08T16:37:20.206Z,8.13
2023-03-08T16:39:24.499Z,6.63
2023-03-08T16:41:30.072Z,11.50
2023-03-08T16:43:45.615Z,7.88
2023-03-08T16:45:59.516Z,9.30
2023-03-08T16:48:03.090Z,10.45
2023-03-08T16:50:07.484Z,8.73
2023-03-08T16:52:10.979Z,6.75
2023-03-08T16:54:14.899Z,7.53
2023-03-08T16:56:19.584Z,6.75
2023-03-08T16:58:24.480Z,5.15
2023-03-08T17:00:28.219Z,5.90
2023-03-08T17:02:33.219Z,5.03
2023-03-08T17:04:36.732Z,6.28
2023-03-08T17:06:41.006Z,4.88
2023-03-08T17:08:44.353Z,8.35
2023-03-08T17:10:47.686Z,5.72
2023-03-08T17:12:50.976Z,9.70
2023-03-08T17:14:54.233Z,6.78
2023-03-08T17:16:58.078Z,8.68
2023-03-08T17:19:03.570Z,6.43
2023-03-08T17:21:07.730Z,5.95
2023-03-08T17:23:13.225Z,6.05
2023-03-08T17:25:16.775Z,10.15
2023-03-08T17:27:20.224Z,5.18
2023-03-08T17:29:23.921Z,6.45
2023-03-08T17:31:27.383Z,11.38
2023-03-08T17:33:30.743Z,6.05
2023-03-08T17:35:39.812Z,4.50
2023-03-08T17:37:43.573Z,5.60
2023-03-08T17:39:46.850Z,7.18
2023-03-08T17:41:50.150Z,6.63
2023-03-08T17:43:53.503Z,9.25
2023-03-08T17:46:00.390Z,6.88
2023-03-08T17:48:04.022Z,6.90
2023-03-08T17:50:08.835Z,9.82
2023-03-08T17:52:13.439Z,6.28
2023-03-08T17:54:16.854Z,6.13
2023-03-08T17:56:29.349Z,9.05
2023-03-08T17:58:33.161Z,7.40
2023-03-08T18:00:39.446Z,9.00
2023-03-08T18:02:43.379Z,6.55
2023-03-08T18:04:47.896Z,6.80
2023-03-08T18:06:51.176Z,9.07
2023-03-08T18:08:56.708Z,6.22
2023-03-08T18:10:59.968Z,10.25
2023-03-08T18:13:03.264Z,7.80
2023-03-08T18:15:07.984Z,6.70
2023-03-08T18:17:12.407Z,6.35
2023-03-08T18:19:15.790Z,6.93
2023-03-08T18:21:20.350Z,4.60
2023-03-08T18:23:24.716Z,15.30
2023-03-08T18:25:29.500Z,10.23
2023-03-08T18:27:32.888Z,6.60
2023-03-08T18:29:37.076Z,6.78
2023-03-08T18:31:41.182Z,5.82
2023-03-08T18:33:46.258Z,5.95
2023-03-08T18:35:57.609Z,9.55
2023-03-08T18:38:02.835Z,8.88
2023-03-08T18:40:11.915Z,9.02
2023-03-08T18:42:17.876Z,11.40
2023-03-08T18:44:21.134Z,6.50
2023-03-08T18:46:28.828Z,8.55
2023-03-08T18:48:32.465Z,8.90
2023-03-08T18:50:47.341Z,6.53
2023-03-08T18:52:52.489Z,8.30
2023-03-08T18:54:57.045Z,7.40
2023-03-08T18:57:01.211Z,14.07
2023-03-08T18:59:07.583Z,10.07
2023-03-08T19:01:12.845Z,6.68
2023-03-08T19:03:16.909Z,9.27
2023-03-08T19:05:20.666Z,10.55
2023-03-08T19:07:25.733Z,7.53
2023-03-08T19:09:29.279Z,9.25
2023-03-08T19:11:44.595Z,7.53
2023-03-08T19:13:49.133Z,12.63
2023-03-08T19:15:53.827Z,8.55
2023-03-08T19:17:57.899Z,7.50
2023-03-08T19:20:01.154Z,7.60
2023-03-08T19:22:05.397Z,11.32
2023-03-08T19:24:09.384Z,10.00
2023-03-08T19:26:31.646Z,10.15
2023-03-08T19:28:34.941Z,8.32
2023-03-08T19:30:38.250Z,10.57
2023-03-08T19:32:43.120Z,11.43
2023-03-08T19:34:48.407Z,10.70
2023-03-08T19:36:52.168Z,11.68
2023-03-08T19:38:56.909Z,11.02
2023-03-08T19:41:00.157Z,10.63
2023-03-08T19:43:03.493Z,10.73
2023-03-08T19:45:07.862Z,13.30
2023-03-08T19:47:11.253Z,8.82
2023-03-08T19:49:17.953Z,11.82
2023-03-08T19:51:21.826Z,14.43
2023-03-08T19:53:25.218Z,11.30
2023-03-08T19:55:28.586Z,13.88
2023-03-08T19:57:31.994Z,12.73
2023-03-08T19:59:36.761Z,15.00
2023-03-08T20:01:40.643Z,12.55
2023-03-08T20:03:44.302Z,12.18
2023-03-08T20:05:50.018Z,11.88
2023-03-08T20:07:53.406Z,13.07
2023-03-08T20:10:02.303Z,14.02
2023-03-08T20:12:13.750Z,12.07
2023-03-08T20:14:17.098Z,15.95
2023-03-08T20:16:21.239Z,13.30
2023-03-08T20:18:25.748Z,15.85
2023-03-08T20:20:29.105Z,15.55
2023-03-08T20:22:33.902Z,13.68
2023-03-08T20:24:37.229Z,13.40
2023-03-08T20:26:41.983Z,13.48
2023-03-08T20:28:45.295Z,10.82
2023-03-08T20:30:49.031Z,11.25
2023-03-08T20:32:52.341Z,16.05
2023-03-08T20:34:56.116Z,14.68
2023-03-08T20:36:59.378Z,12.98
2023-03-08T20:39:04.705Z,13.40
2023-03-08T20:41:12.036Z,12.32
2023-03-08T20:43:15.239Z,15.15
2023-03-08T20:45:18.858Z,13.10
2023-03-08T20:47:22.775Z,14.60
2023-03-08T20:49:28.283Z,14.05
2023-03-08T20:51:31.736Z,12.77
2023-03-08T20:53:35.872Z,12.02
2023-03-08T20:55:42.106Z,14.70
2023-03-08T20:57:45.633Z,11.93
2023-03-08T20:59:50.056Z,13.45
2023-03-08T21:01:53.921Z,12.68
2023-03-08T21:03:57.471Z,14.27
2023-03-08T21:06:01.016Z,12.13
2023-03-08T21:08:05.287Z,13.68
2023-03-08T21:10:09.511Z,12.20
2023-03-08T21:12:14.291Z,13.32
2023-03-08T21:14:17.594Z,11.80
2023-03-08T21:16:22.914Z,11.13
2023-03-08T21:18:26.617Z,10.23
2023-03-08T21:20:37.514Z,11.60
2023-03-08T21:22:40.840Z,11.07
2023-03-08T21:24:44.054Z,12.40
2023-03-08T21:26:47.266Z,12.35
2023-03-08T21:28:52.695Z,12.13
2023-03-08T21:30:55.983Z,11.80
2023-03-08T21:33:01.292Z,13.00
2023-03-08T21:35:05.179Z,9.40
2023-03-08T21:37:08.437Z,9.55
2023-03-08T21:39:12.241Z,10.60
2023-03-08T21:41:19.142Z,8.98
2023-03-08T21:43:22.484Z,10.88
2023-03-08T21:45:27.325Z,9.80
2023-03-08T21:47:30.548Z,8.32
2023-03-08T21:49:35.357Z,13.27
2023-03-08T21:51:38.939Z,10.77
2023-03-08T21:53:43.269Z,10.45
2023-03-08T21:55:46.715Z,10.20
2023-03-08T21:57:53.292Z,11.27
2023-03-08T21:59:56.462Z,8.82
2023-03-08T22:02:01.164Z,9.35
2023-03-08T22:04:05.788Z,10.68
2023-03-08T22:06:09.110Z,11.00
2023-03-08T22:08:12.494Z,9.63
2023-03-08T22:10:16.176Z,9.38
2023-03-08T22:12:21.665Z,9.70
2023-03-08T22:14:24.942Z,11.88
2023-03-08T22:16:29.838Z,12.32
2023-03-08T22:18:34.438Z,10.77
2023-03-08T22:20:37.618Z,9.88
2023-03-08T22:22:41.741Z,10.13
2023-03-08T22:24:44.938Z,13.82
2023-03-08T22:26:48.119Z,8.15
2023-03-08T22:28:51.952Z,10.63
2023-03-08T22:30:55.141Z,11.25
2023-03-08T22:32:58.345Z,11.93
2023-03-08T22:35:02.934Z,9.00
2023-03-08T22:37:06.889Z,12.50
2023-03-08T22:39:11.932Z,9.52
2023-03-08T22:41:17.026Z,11.40
2023-03-08T22:43:20.272Z,10.93
2023-03-08T22:45:23.555Z,10.70
2023-03-08T22:47:27.595Z,12.45
2023-03-08T22:49:30.806Z,8.40
2023-03-08T22:51:36.513Z,10.55
2023-03-08T22:53:40.458Z,9.40
2023-03-08T22:55:48.298Z,8.00
2023-03-08T22:57:51.639Z,8.98
2023-03-08T22:59:56.353Z,7.90
2023-03-08T23:01:59.635Z,7.57
2023-03-08T23:04:06.139Z,11.30
2023-03-08T23:06:09.593Z,9.15
2023-03-08T23:08:14.259Z,10.27
2023-03-08T23:10:18.546Z,7.95
2023-03-08T23:12:21.798Z,9.68
2023-03-08T23:14:25.286Z,8.55
2023-03-08T23:16:28.637Z,10.27
2023-03-08T23:18:31.837Z,6.63
2023-03-08T23:20:35.131Z,8.30
2023-03-08T23:22:38.361Z,7.75
2023-03-08T23:24:42.957Z,8.57
2023-03-08T23:26:46.967Z,12.75
2023-03-08T23:28:50.114Z,9.07
2023-03-08T23:30:53.336Z,10.05
2023-03-08T23:32:56.788Z,10.32
2023-03-08T23:35:00.331Z,8.70
2023-03-08T23:37:04.331Z,9.43
2023-03-08T23:39:08.232Z,10.13
2023-03-08T23:41:13.961Z,7.65
2023-03-08T23:43:17.133Z,8.68
2023-03-08T23:45:21.095Z,8.40
2023-03-08T23:47:24.276Z,9.63
2023-03-08T23:49:27.457Z,10.68
2023-03-08T23:51:32.380Z,10.68
2023-03-08T23:53:36.267Z,8.45
2023-03-08T23:55:40.455Z,10.27
2023-03-08T23:57:45.062Z,9.63
2023-03-08T23:59:48.451Z,7.25
